Pleasant Grove, Minnesota
Current Conditions -  °F | °C
As of 3:54 PM on Friday 31 Oct 2014 (Local Time) from KRST Reporting Station
Clear Clear  
Wind Chill: 31°   Ceiling: Unl
Heat Index: 39°   Visibility: 10mi
Dew Point: 19°   Wind: 15mph
Humidity: 45%   Direction: 360°N
Pressure: 30.46"   Gusts: NA
Location:  43.8884°N, 92.383°W
Report Text: KRST 312054Z 36013KT 10SM CLR 04/M07 A3046 RMK AO2 SLP330 T00391072 55009
Loading
Personal Weather Stations






























Interactive Weather Map
Tropical Storm Tracking
New forecast layout! Learn more

10-Day Weather Forecast

Advertisements
Track Severe Weather on mobile